sensor_id;sensor_type;location;lat;lon;timestamp;temperature;humidity
18020;DHT22;9135;48.362;10.878;2022-07-29T06:34:04;18.90;99.90
18020;DHT22;9135;48.362;10.878;2022-07-29T06:36:30;19.10;99.90
18020;DHT22;9135;48.362;10.878;2022-07-29T06:38:55;19.20;99.90
18020;DHT22;9135;48.362;10.878;2022-07-29T06:41:21;19.20;99.90
18020;DHT22;9135;48.362;10.878;2022-07-29T06:43:48;19.40;99.90
18020;DHT22;9135;48.362;10.878;2022-07-29T06:46:15;19.40;99.90
18020;DHT22;9135;48.362;10.878;2022-07-29T06:48:43;19.40;99.90
18020;DHT22;9135;48.362;10.878;2022-07-29T06:53:35;19.60;99.90
18020;DHT22;9135;48.362;10.878;2022-07-29T06:56:03;19.70;99.90
18020;DHT22;9135;48.362;10.878;2022-07-29T06:58:29;19.70;99.90
18020;DHT22;9135;48.362;10.878;2022-07-29T07:00:57;19.80;99.90
18020;DHT22;9135;48.362;10.878;2022-07-29T07:03:23;20.00;99.90
18020;DHT22;9135;48.362;10.878;2022-07-29T07:05:49;20.00;99.90
18020;DHT22;9135;48.362;10.878;2022-07-29T07:08:15;20.10;99.90
18020;DHT22;9135;48.362;10.878;2022-07-29T07:10:42;20.30;99.90
18020;DHT22;9135;48.362;10.878;2022-07-29T07:13:08;20.50;99.90
18020;DHT22;9135;48.362;10.878;2022-07-29T07:15:35;20.50;99.90
18020;DHT22;9135;48.362;10.878;2022-07-29T07:18:00;20.50;99.90
18020;DHT22;9135;48.362;10.878;2022-07-29T07:20:26;20.30;99.90
18020;DHT22;9135;48.362;10.878;2022-07-29T07:22:52;20.40;99.90
18020;DHT22;9135;48.362;10.878;2022-07-29T07:25:17;20.50;99.90
18020;DHT22;9135;48.362;10.878;2022-07-29T07:27:44;20.60;99.90
18020;DHT22;9135;48.362;10.878;2022-07-29T07:30:10;20.80;99.90
18020;DHT22;9135;48.362;10.878;2022-07-29T07:35:03;20.90;99.90
18020;DHT22;9135;48.362;10.878;2022-07-29T07:37:29;21.10;99.90
18020;DHT22;9135;48.362;10.878;2022-07-29T07:39:55;21.20;91.30
18020;DHT22;9135;48.362;10.878;2022-07-29T07:42:20;21.00;99.90
18020;DHT22;9135;48.362;10.878;2022-07-29T07:44:46;20.90;98.70
18020;DHT22;9135;48.362;10.878;2022-07-29T07:47:14;21.30;99.90
18020;DHT22;9135;48.362;10.878;2022-07-29T07:49:40;21.30;99.90
18020;DHT22;9135;48.362;10.878;2022-07-29T07:52:05;21.30;99.90
18020;DHT22;9135;48.362;10.878;2022-07-29T07:54:31;21.40;99.90
18020;DHT22;9135;48.362;10.878;2022-07-29T07:56:57;21.50;93.80
18020;DHT22;9135;48.362;10.878;2022-07-29T07:59:23;21.20;91.40
18020;DHT22;9135;48.362;10.878;2022-07-29T08:01:49;21.30;99.30
18020;DHT22;9135;48.362;10.878;2022-07-29T08:04:14;21.50;99.90
18020;DHT22;9135;48.362;10.878;2022-07-29T08:06:40;21.40;99.90
18020;DHT22;9135;48.362;10.878;2022-07-29T08:09:06;21.20;99.90
18020;DHT22;9135;48.362;10.878;2022-07-29T08:11:31;21.10;99.90
18020;DHT22;9135;48.362;10.878;2022-07-29T08:13:57;21.20;99.90
18020;DHT22;9135;48.362;10.878;2022-07-29T08:16:23;21.20;99.90
18020;DHT22;9135;48.362;10.878;2022-07-29T08:18:51;21.40;99.90
18020;DHT22;9135;48.362;10.878;2022-07-29T08:21:17;21.50;55.50
18020;DHT22;9135;48.362;10.878;2022-07-29T08:23:46;21.60;37.90
18020;DHT22;9135;48.362;10.878;2022-07-29T08:26:15;21.60;49.10
18020;DHT22;9135;48.362;10.878;2022-07-29T08:28:42;21.50;51.70
18020;DHT22;9135;48.362;10.878;2022-07-29T08:31:12;21.50;55.60
18020;DHT22;9135;48.362;10.878;2022-07-29T08:33:38;21.50;64.40
18020;DHT22;9135;48.362;10.878;2022-07-29T08:36:05;21.40;38.90
18020;DHT22;9135;48.362;10.878;2022-07-29T08:38:31;21.50;37.80
18020;DHT22;9135;48.362;10.878;2022-07-29T08:40:58;21.40;45.00
18020;DHT22;9135;48.362;10.878;2022-07-29T08:43:24;21.30;52.00
18020;DHT22;9135;48.362;10.878;2022-07-29T08:45:50;21.50;56.80
18020;DHT22;9135;48.362;10.878;2022-07-29T08:48:19;21.60;70.00
18020;DHT22;9135;48.362;10.878;2022-07-29T08:50:47;21.60;54.00
18020;DHT22;9135;48.362;10.878;2022-07-29T08:53:16;21.60;52.00
18020;DHT22;9135;48.362;10.878;2022-07-29T08:55:44;21.50;84.20
18020;DHT22;9135;48.362;10.878;2022-07-29T08:58:10;21.80;57.20
18020;DHT22;9135;48.362;10.878;2022-07-29T09:00:41;21.90;56.90
18020;DHT22;9135;48.362;10.878;2022-07-29T09:03:09;22.00;51.70
18020;DHT22;9135;48.362;10.878;2022-07-29T09:05:40;21.70;63.70
18020;DHT22;9135;48.362;10.878;2022-07-29T09:08:06;21.80;84.90
18020;DHT22;9135;48.362;10.878;2022-07-29T09:10:34;21.70;91.60
18020;DHT22;9135;48.362;10.878;2022-07-29T09:13:00;21.70;86.10
18020;DHT22;9135;48.362;10.878;2022-07-29T09:15:25;21.90;60.50
18020;DHT22;9135;48.362;10.878;2022-07-29T09:17:51;21.90;73.00
18020;DHT22;9135;48.362;10.878;2022-07-29T09:20:21;21.90;59.80
18020;DHT22;9135;48.362;10.878;2022-07-29T09:22:50;22.10;50.00
18020;DHT22;9135;48.362;10.878;2022-07-29T09:25:38;22.10;51.50
18020;DHT22;9135;48.362;10.878;2022-07-29T09:28:15;22.00;63.70
18020;DHT22;9135;48.362;10.878;2022-07-29T09:30:52;22.10;90.20
18020;DHT22;9135;48.362;10.878;2022-07-29T09:33:19;22.20;62.40
18020;DHT22;9135;48.362;10.878;2022-07-29T09:35:45;22.80;65.10
18020;DHT22;9135;48.362;10.878;2022-07-29T09:38:14;22.70;28.20
18020;DHT22;9135;48.362;10.878;2022-07-29T09:40:40;22.90;51.80
18020;DHT22;9135;48.362;10.878;2022-07-29T09:43:13;23.00;24.20
18020;DHT22;9135;48.362;10.878;2022-07-29T09:45:39;23.00;11.40
18020;DHT22;9135;48.362;10.878;2022-07-29T09:48:22;23.00;6.40
18020;DHT22;9135;48.362;10.878;2022-07-29T09:50:48;23.30;1.00
18020;DHT22;9135;48.362;10.878;2022-07-29T09:56:00;23.50;1.00
18020;DHT22;9135;48.362;10.878;2022-07-29T09:58:26;24.00;1.00
18020;DHT22;9135;48.362;10.878;2022-07-29T10:04:11;24.30;1.00
18020;DHT22;9135;48.362;10.878;2022-07-29T10:06:55;24.20;1.00
18020;DHT22;9135;48.362;10.878;2022-07-29T10:09:21;24.60;1.00
18020;DHT22;9135;48.362;10.878;2022-07-29T10:14:30;24.60;1.00
18020;DHT22;9135;48.362;10.878;2022-07-29T10:16:57;24.60;1.00
18020;DHT22;9135;48.362;10.878;2022-07-29T10:19:23;24.50;1.00
18020;DHT22;9135;48.362;10.878;2022-07-29T10:21:49;24.50;1.00
18020;DHT22;9135;48.362;10.878;2022-07-29T10:24:15;24.80;1.00
18020;DHT22;9135;48.362;10.878;2022-07-29T10:26:42;24.70;1.00
18020;DHT22;9135;48.362;10.878;2022-07-29T10:29:07;24.80;1.00
18020;DHT22;9135;48.362;10.878;2022-07-29T10:34:31;25.00;1.00
18020;DHT22;9135;48.362;10.878;2022-07-29T10:37:24;25.10;1.00
18020;DHT22;9135;48.362;10.878;2022-07-29T10:40:22;25.10;1.00
18020;DHT22;9135;48.362;10.878;2022-07-29T10:43:36;24.80;1.00
18020;DHT22;9135;48.362;10.878;2022-07-29T10:46:04;24.90;1.00
18020;DHT22;9135;48.362;10.878;2022-07-29T10:48:30;24.90;1.00
18020;DHT22;9135;48.362;10.878;2022-07-29T10:53:47;25.10;1.00
18020;DHT22;9135;48.362;10.878;2022-07-29T10:56:39;25.50;1.00
18020;DHT22;9135;48.362;10.878;2022-07-29T11:01:47;25.50;1.00
18020;DHT22;9135;48.362;10.878;2022-07-29T11:04:15;25.70;1.00
18020;DHT22;9135;48.362;10.878;2022-07-29T11:09:29;26.00;1.00
18020;DHT22;9135;48.362;10.878;2022-07-29T11:11:56;26.20;1.00
18020;DHT22;9135;48.362;10.878;2022-07-29T11:14:57;26.10;1.00
18020;DHT22;9135;48.362;10.878;2022-07-29T11:17:24;26.20;1.00
18020;DHT22;9135;48.362;10.878;2022-07-29T11:19:49;26.20;1.00
18020;DHT22;9135;48.362;10.878;2022-07-29T11:22:32;26.20;1.00
18020;DHT22;9135;48.362;10.878;2022-07-29T11:25:18;26.40;1.00
18020;DHT22;9135;48.362;10.878;2022-07-29T11:27:47;26.70;1.00
18020;DHT22;9135;48.362;10.878;2022-07-29T11:30:12;26.40;1.00
18020;DHT22;9135;48.362;10.878;2022-07-29T11:32:40;26.40;1.00
18020;DHT22;9135;48.362;10.878;2022-07-29T11:35:20;26.40;1.00
18020;DHT22;9135;48.362;10.878;2022-07-29T11:38:22;26.60;1.00
18020;DHT22;9135;48.362;10.878;2022-07-29T11:40:33;26.90;1.00
18020;DHT22;9135;48.362;10.878;2022-07-29T11:42:58;26.60;1.00
18020;DHT22;9135;48.362;10.878;2022-07-29T11:45:25;26.60;1.00
18020;DHT22;9135;48.362;10.878;2022-07-29T11:47:57;26.60;1.00
18020;DHT22;9135;48.362;10.878;2022-07-29T11:50:32;26.60;1.00
18020;DHT22;9135;48.362;10.878;2022-07-29T11:53:01;26.30;1.00
18020;DHT22;9135;48.362;10.878;2022-07-29T11:55:27;26.00;1.00
18020;DHT22;9135;48.362;10.878;2022-07-29T11:57:56;26.20;1.00
18020;DHT22;9135;48.362;10.878;2022-07-29T12:00:36;26.10;1.00
18020;DHT22;9135;48.362;10.878;2022-07-29T12:03:05;26.60;1.00
18020;DHT22;9135;48.362;10.878;2022-07-29T12:08:07;26.60;1.00
18020;DHT22;9135;48.362;10.878;2022-07-29T12:10:33;26.50;1.00
18020;DHT22;9135;48.362;10.878;2022-07-29T12:12:59;26.10;1.00
18020;DHT22;9135;48.362;10.878;2022-07-29T12:15:24;26.00;1.00
18020;DHT22;9135;48.362;10.878;2022-07-29T12:17:51;26.20;1.00
18020;DHT22;9135;48.362;10.878;2022-07-29T12:20:28;26.00;1.00
18020;DHT22;9135;48.362;10.878;2022-07-29T12:22:55;25.80;1.00
18020;DHT22;9135;48.362;10.878;2022-07-29T12:25:23;25.80;1.00
18020;DHT22;9135;48.362;10.878;2022-07-29T12:28:02;25.80;1.00
18020;DHT22;9135;48.362;10.878;2022-07-29T12:30:36;25.90;1.00
18020;DHT22;9135;48.362;10.878;2022-07-29T12:33:14;25.90;1.00
18020;DHT22;9135;48.362;10.878;2022-07-29T12:35:42;25.90;1.00
18020;DHT22;9135;48.362;10.878;2022-07-29T12:38:10;25.80;1.00
18020;DHT22;9135;48.362;10.878;2022-07-29T12:40:36;25.80;1.00
18020;DHT22;9135;48.362;10.878;2022-07-29T12:45:40;25.60;1.00
18020;DHT22;9135;48.362;10.878;2022-07-29T12:48:07;25.60;1.00
18020;DHT22;9135;48.362;10.878;2022-07-29T12:50:35;25.50;1.00
18020;DHT22;9135;48.362;10.878;2022-07-29T12:53:12;25.50;1.00
18020;DHT22;9135;48.362;10.878;2022-07-29T12:55:48;25.20;1.00
18020;DHT22;9135;48.362;10.878;2022-07-29T12:58:35;25.20;1.00
18020;DHT22;9135;48.362;10.878;2022-07-29T13:03:28;25.00;99.90
18020;DHT22;9135;48.362;10.878;2022-07-29T13:05:54;25.00;99.90
18020;DHT22;9135;48.362;10.878;2022-07-29T13:08:20;24.90;99.90
18020;DHT22;9135;48.362;10.878;2022-07-29T13:10:45;24.80;99.90
18020;DHT22;9135;48.362;10.878;2022-07-29T13:13:15;24.70;1.00
18020;DHT22;9135;48.362;10.878;2022-07-29T13:15:42;24.60;1.00
18020;DHT22;9135;48.362;10.878;2022-07-29T13:18:31;24.50;1.00
18020;DHT22;9135;48.362;10.878;2022-07-29T13:20:58;24.50;1.00
18020;DHT22;9135;48.362;10.878;2022-07-29T13:23:35;24.50;1.00
18020;DHT22;9135;48.362;10.878;2022-07-29T13:26:08;24.30;1.00
18020;DHT22;9135;48.362;10.878;2022-07-29T13:28:35;24.40;1.00
18020;DHT22;9135;48.362;10.878;2022-07-29T13:31:01;24.40;1.00
18020;DHT22;9135;48.362;10.878;2022-07-29T13:33:26;24.50;1.00
18020;DHT22;9135;48.362;10.878;2022-07-29T13:35:52;24.50;1.00
18020;DHT22;9135;48.362;10.878;2022-07-29T13:38:18;24.60;1.00
18020;DHT22;9135;48.362;10.878;2022-07-29T13:40:43;24.50;1.00
18020;DHT22;9135;48.362;10.878;2022-07-29T13:43:10;24.60;1.00
18020;DHT22;9135;48.362;10.878;2022-07-29T13:45:35;24.60;1.00
18020;DHT22;9135;48.362;10.878;2022-07-29T13:48:01;24.60;1.00
18020;DHT22;9135;48.362;10.878;2022-07-29T13:50:27;24.60;1.00
18020;DHT22;9135;48.362;10.878;2022-07-29T13:52:53;24.60;1.00
18020;DHT22;9135;48.362;10.878;2022-07-29T13:55:19;24.80;1.00
18020;DHT22;9135;48.362;10.878;2022-07-29T13:57:45;24.70;1.00
18020;DHT22;9135;48.362;10.878;2022-07-29T14:00:11;24.80;1.00
18020;DHT22;9135;48.362;10.878;2022-07-29T14:02:37;24.90;1.00
18020;DHT22;9135;48.362;10.878;2022-07-29T14:05:04;24.90;1.00
18020;DHT22;9135;48.362;10.878;2022-07-29T14:07:30;24.90;1.00
18020;DHT22;9135;48.362;10.878;2022-07-29T14:09:56;24.90;1.00
18020;DHT22;9135;48.362;10.878;2022-07-29T14:12:22;25.00;1.00
18020;DHT22;9135;48.362;10.878;2022-07-29T14:14:48;24.90;1.00
18020;DHT22;9135;48.362;10.878;2022-07-29T14:17:14;24.90;1.00
18020;DHT22;9135;48.362;10.878;2022-07-29T14:19:40;25.00;1.00
18020;DHT22;9135;48.362;10.878;2022-07-29T14:22:06;25.20;1.00
18020;DHT22;9135;48.362;10.878;2022-07-29T14:24:33;25.20;1.00
18020;DHT22;9135;48.362;10.878;2022-07-29T14:26:58;25.50;99.90
18020;DHT22;9135;48.362;10.878;2022-07-29T14:29:24;26.00;99.90
18020;DHT22;9135;48.362;10.878;2022-07-29T14:31:50;25.90;99.90
18020;DHT22;9135;48.362;10.878;2022-07-29T14:34:16;26.00;99.90
18020;DHT22;9135;48.362;10.878;2022-07-29T14:36:42;25.90;99.90
18020;DHT22;9135;48.362;10.878;2022-07-29T14:39:07;26.00;99.90
18020;DHT22;9135;48.362;10.878;2022-07-29T14:41:33;25.80;99.90
18020;DHT22;9135;48.362;10.878;2022-07-29T14:44:00;25.70;99.90
18020;DHT22;9135;48.362;10.878;2022-07-29T14:46:26;25.70;99.90
18020;DHT22;9135;48.362;10.878;2022-07-29T14:48:52;25.50;99.90
18020;DHT22;9135;48.362;10.878;2022-07-29T14:51:18;25.50;99.90
18020;DHT22;9135;48.362;10.878;2022-07-29T14:53:43;25.50;99.90
18020;DHT22;9135;48.362;10.878;2022-07-29T14:56:09;25.30;99.90
18020;DHT22;9135;48.362;10.878;2022-07-29T14:58:34;25.50;99.90
18020;DHT22;9135;48.362;10.878;2022-07-29T15:01:00;25.60;99.90
18020;DHT22;9135;48.362;10.878;2022-07-29T15:03:26;25.50;99.90
18020;DHT22;9135;48.362;10.878;2022-07-29T15:05:53;25.60;99.90
18020;DHT22;9135;48.362;10.878;2022-07-29T15:08:19;25.70;99.90
18020;DHT22;9135;48.362;10.878;2022-07-29T15:10:45;25.60;99.90
18020;DHT22;9135;48.362;10.878;2022-07-29T15:13:10;25.50;99.90
18020;DHT22;9135;48.362;10.878;2022-07-29T15:15:36;25.50;99.90
18020;DHT22;9135;48.362;10.878;2022-07-29T15:18:01;25.70;99.90
18020;DHT22;9135;48.362;10.878;2022-07-29T15:20:27;25.70;99.90
18020;DHT22;9135;48.362;10.878;2022-07-29T15:22:53;25.70;99.90
18020;DHT22;9135;48.362;10.878;2022-07-29T15:25:21;25.60;1.00
18020;DHT22;9135;48.362;10.878;2022-07-29T15:27:47;25.50;1.00
18020;DHT22;9135;48.362;10.878;2022-07-29T15:30:13;25.30;1.00
18020;DHT22;9135;48.362;10.878;2022-07-29T15:32:40;25.30;1.00
18020;DHT22;9135;48.362;10.878;2022-07-29T15:35:06;25.10;1.00
18020;DHT22;9135;48.362;10.878;2022-07-29T15:37:32;25.10;1.00
18020;DHT22;9135;48.362;10.878;2022-07-29T15:40:00;24.90;1.00
18020;DHT22;9135;48.362;10.878;2022-07-29T15:44:51;24.70;1.00
18020;DHT22;9135;48.362;10.878;2022-07-29T15:47:17;24.70;1.00
18020;DHT22;9135;48.362;10.878;2022-07-29T15:49:43;24.60;1.00
18020;DHT22;9135;48.362;10.878;2022-07-29T15:54:37;24.20;1.00
18020;DHT22;9135;48.362;10.878;2022-07-29T15:57:05;24.20;1.00
18020;DHT22;9135;48.362;10.878;2022-07-29T16:09:17;23.80;1.00
18020;DHT22;9135;48.362;10.878;2022-07-29T16:14:10;23.60;1.00
18020;DHT22;9135;48.362;10.878;2022-07-29T16:21:29;23.50;1.00
